Terminal Aerodrome Forecast
Issued by NWS

Home | Current Version | Previous Version | Text Only | Print | Product List | Glossary On
Versions: 1 2 3 4 5 6 7 8 9 10 11 12 13 14
000
FTUS42 KMLB 311700
TAFLEE
TAF
KLEE 311736Z 3118/0118 29010KT P6SM FEW040
     FM010000 29007KT P6SM FEW030
     FM011000 29013G21KT P6SM SKC
     FM011300 30018G26KT P6SM SKC=

USA.gov is the U.S. government's official web portal to all federal, state and local government web resources and services.